createdAt,value
2023-05-05T00:02:21.126Z,13.20
2023-05-05T00:04:49.167Z,13.20
2023-05-05T00:07:17.099Z,13.10
2023-05-05T00:09:45.066Z,13.10
2023-05-05T00:12:14.386Z,13.20
2023-05-05T00:14:42.749Z,13.20
2023-05-05T00:17:10.810Z,13.20
2023-05-05T00:19:38.886Z,13.10
2023-05-05T00:22:07.056Z,13.00
2023-05-05T00:24:35.053Z,12.90
2023-05-05T00:27:03.487Z,12.80
2023-05-05T00:29:32.981Z,12.80
2023-05-05T00:32:00.974Z,12.80
2023-05-05T00:34:30.037Z,12.90
2023-05-05T00:36:58.015Z,12.80
2023-05-05T00:39:26.085Z,12.80
2023-05-05T00:41:54.243Z,12.70
2023-05-05T00:44:39.289Z,12.60
2023-05-05T00:47:08.630Z,12.50
2023-05-05T00:49:37.183Z,12.40
2023-05-05T00:52:06.679Z,12.40
2023-05-05T00:54:35.325Z,12.40
2023-05-05T00:57:04.033Z,12.40
2023-05-05T00:59:33.873Z,12.40
2023-05-05T01:02:03.372Z,12.40
2023-05-05T01:04:31.400Z,12.30
2023-05-05T01:07:09.031Z,12.30
2023-05-05T01:09:43.833Z,12.20
2023-05-05T01:12:22.307Z,12.10
2023-05-05T01:15:01.498Z,12.10
2023-05-05T01:17:39.218Z,12.10
2023-05-05T01:20:18.119Z,12.00
2023-05-05T01:22:50.137Z,12.00
2023-05-05T01:25:43.575Z,12.00
2023-05-05T01:28:29.357Z,12.00
2023-05-05T01:31:27.945Z,11.90
2023-05-05T01:34:04.109Z,12.00
2023-05-05T01:36:37.035Z,12.00
2023-05-05T01:39:07.837Z,12.00
2023-05-05T01:41:42.607Z,12.00
2023-05-05T01:44:12.848Z,11.90
2023-05-05T01:46:41.038Z,11.90
2023-05-05T01:49:12.080Z,11.90
2023-05-05T01:51:41.387Z,11.90
2023-05-05T01:54:10.996Z,11.90
2023-05-05T01:56:41.091Z,11.80
2023-05-05T01:59:10.445Z,11.80
2023-05-05T02:01:44.499Z,11.90
2023-05-05T02:04:16.034Z,11.90
2023-05-05T02:06:47.512Z,11.90
2023-05-05T02:09:16.131Z,11.90
2023-05-05T02:11:44.332Z,12.00
2023-05-05T02:14:13.464Z,12.00
2023-05-05T02:16:43.445Z,12.00
2023-05-05T02:19:13.249Z,12.00
2023-05-05T02:21:41.756Z,12.00
2023-05-05T02:24:10.219Z,12.00
2023-05-05T02:26:41.146Z,12.00
2023-05-05T02:29:12.811Z,12.00
2023-05-05T02:31:43.945Z,11.90
2023-05-05T02:34:17.341Z,11.80
2023-05-05T02:36:47.850Z,11.90
2023-05-05T02:39:21.554Z,11.80
2023-05-05T02:41:50.657Z,11.80
2023-05-05T02:44:20.900Z,11.80
2023-05-05T02:46:49.345Z,11.80
2023-05-05T02:49:18.656Z,11.80
2023-05-05T02:51:46.583Z,11.80
2023-05-05T02:54:14.705Z,11.90
2023-05-05T02:56:48.682Z,11.90
2023-05-05T02:59:22.823Z,11.90
2023-05-05T03:01:57.752Z,11.80
2023-05-05T03:04:30.830Z,11.90
2023-05-05T03:07:00.512Z,11.90
2023-05-05T03:09:34.155Z,11.80
2023-05-05T03:12:04.816Z,11.80
2023-05-05T03:14:38.039Z,11.90
2023-05-05T03:17:07.455Z,11.90
2023-05-05T03:19:38.216Z,11.90
2023-05-05T03:22:06.380Z,11.90
2023-05-05T03:24:34.445Z,11.90
2023-05-05T03:27:03.059Z,11.90
2023-05-05T03:29:31.166Z,11.90
2023-05-05T03:32:00.997Z,11.90
2023-05-05T03:34:28.973Z,11.90
2023-05-05T03:36:58.224Z,12.00
2023-05-05T03:39:26.234Z,11.90
2023-05-05T03:41:54.186Z,11.90
2023-05-05T03:44:22.159Z,11.90
2023-05-05T03:46:50.078Z,12.00
2023-05-05T03:49:18.049Z,12.00
2023-05-05T03:51:46.773Z,12.00
2023-05-05T03:54:16.669Z,12.00
2023-05-05T03:56:44.633Z,12.00
2023-05-05T03:59:12.591Z,12.00
2023-05-05T04:01:40.504Z,12.10
2023-05-05T04:04:09.407Z,12.00
2023-05-05T04:06:37.471Z,12.00
2023-05-05T04:09:05.723Z,12.00
2023-05-05T04:11:35.024Z,12.00
2023-05-05T04:14:02.921Z,12.00
2023-05-05T04:16:31.031Z,12.00
2023-05-05T04:18:59.118Z,12.10
2023-05-05T04:21:27.094Z,12.10
2023-05-05T04:23:55.024Z,12.20
2023-05-05T04:26:23.028Z,12.20
2023-05-05T04:28:52.308Z,12.20
2023-05-05T04:31:20.326Z,12.30
2023-05-05T04:33:48.513Z,12.30
2023-05-05T04:36:16.475Z,12.40
2023-05-05T04:38:44.410Z,12.50
2023-05-05T04:41:12.392Z,12.60
2023-05-05T04:43:40.907Z,12.60
2023-05-05T04:46:10.241Z,12.70
2023-05-05T04:48:38.516Z,12.70
2023-05-05T04:51:07.028Z,12.70
2023-05-05T04:53:35.028Z,12.70
2023-05-05T04:56:03.389Z,12.80
2023-05-05T04:58:31.337Z,13.10
2023-05-05T05:00:59.312Z,14.00
2023-05-05T05:03:28.712Z,15.00
2023-05-05T05:05:56.741Z,15.90
2023-05-05T05:08:24.724Z,16.10
2023-05-05T05:10:52.751Z,16.00
2023-05-05T05:13:20.854Z,16.20
2023-05-05T05:15:48.836Z,16.60
2023-05-05T05:18:16.883Z,17.10
2023-05-05T05:20:46.400Z,17.30
2023-05-05T05:23:14.364Z,17.60
2023-05-05T05:25:43.158Z,18.00
2023-05-05T05:28:11.226Z,18.00
2023-05-05T05:30:39.255Z,17.90
2023-05-05T05:33:07.683Z,17.90
2023-05-05T05:35:35.710Z,17.80
2023-05-05T05:38:05.059Z,17.70
2023-05-05T05:40:33.131Z,17.40
2023-05-05T05:43:01.282Z,17.10
2023-05-05T05:45:29.247Z,16.90
2023-05-05T05:47:57.228Z,16.70
2023-05-05T05:50:28.400Z,16.50
2023-05-05T05:52:56.512Z,16.30
2023-05-05T05:55:25.802Z,16.20
2023-05-05T05:57:53.775Z,16.30
2023-05-05T06:00:21.875Z,16.40
2023-05-05T06:02:51.339Z,16.50
2023-05-05T06:05:19.477Z,16.60
2023-05-05T06:07:47.479Z,16.80
2023-05-05T06:10:27.172Z,16.90
2023-05-05T06:12:57.498Z,17.00
2023-05-05T06:15:25.937Z,17.00
2023-05-05T06:17:54.066Z,17.10
2023-05-05T06:20:22.248Z,17.10
2023-05-05T06:22:50.262Z,17.10
2023-05-05T06:25:18.473Z,17.20
2023-05-05T06:27:46.475Z,17.20
2023-05-05T06:30:16.237Z,17.30
2023-05-05T06:32:44.267Z,17.40
2023-05-05T06:35:12.297Z,17.50
2023-05-05T06:37:40.264Z,17.60
2023-05-05T06:40:10.361Z,17.70
2023-05-05T06:42:38.607Z,17.90
2023-05-05T06:45:07.516Z,17.90
2023-05-05T06:47:37.201Z,18.00
2023-05-05T06:50:06.190Z,18.00
2023-05-05T06:52:34.380Z,18.10
2023-05-05T06:55:03.667Z,18.10
2023-05-05T06:57:31.734Z,18.10
2023-05-05T06:59:59.706Z,18.10
2023-05-05T07:02:27.694Z,18.00
2023-05-05T07:04:57.004Z,18.00
2023-05-05T07:07:24.930Z,18.00
2023-05-05T07:09:52.887Z,18.00
2023-05-05T07:12:20.910Z,18.00
2023-05-05T07:14:49.023Z,18.00
2023-05-05T07:17:17.117Z,18.00
2023-05-05T07:19:45.041Z,18.00
2023-05-05T07:22:14.357Z,18.00
2023-05-05T07:24:42.312Z,18.00
2023-05-05T07:27:10.580Z,18.00
2023-05-05T07:29:38.572Z,18.00
2023-05-05T07:32:06.946Z,18.00
2023-05-05T07:34:36.964Z,18.00
2023-05-05T07:37:05.248Z,18.00
2023-05-05T07:39:34.946Z,18.00
2023-05-05T07:42:02.989Z,18.00
2023-05-05T07:44:31.702Z,18.10
2023-05-05T07:46:59.860Z,18.10
2023-05-05T07:49:27.875Z,18.20
2023-05-05T07:51:55.968Z,18.20
2023-05-05T07:54:23.975Z,18.30
2023-05-05T07:56:53.341Z,18.30
2023-05-05T07:59:21.631Z,18.30
2023-05-05T08:01:49.750Z,18.20
2023-05-05T08:04:17.763Z,18.20
2023-05-05T08:06:45.773Z,18.10
2023-05-05T08:09:13.777Z,18.10
2023-05-05T08:11:41.743Z,18.20
2023-05-05T08:14:11.214Z,18.20
2023-05-05T08:16:39.255Z,18.30
2023-05-05T08:19:17.690Z,18.40
2023-05-05T08:21:53.142Z,18.50
2023-05-05T08:24:21.127Z,18.70
2023-05-05T08:26:49.161Z,18.90
2023-05-05T08:29:18.491Z,19.00
2023-05-05T08:31:46.491Z,19.10
2023-05-05T08:34:14.517Z,19.10
2023-05-05T08:36:42.505Z,19.00
2023-05-05T08:39:10.731Z,18.90
2023-05-05T08:41:38.756Z,18.80
2023-05-05T08:44:06.692Z,18.80
2023-05-05T08:46:37.173Z,18.70
2023-05-05T08:49:06.826Z,18.70
2023-05-05T08:51:41.279Z,18.60
2023-05-05T08:54:15.211Z,18.60
2023-05-05T08:56:43.650Z,18.60
2023-05-05T08:59:13.222Z,18.50
2023-05-05T09:01:42.878Z,18.50
2023-05-05T09:04:11.742Z,18.50
2023-05-05T09:06:39.737Z,18.50
2023-05-05T09:09:08.339Z,18.50
2023-05-05T09:11:37.346Z,18.60
2023-05-05T09:14:05.382Z,18.70
2023-05-05T09:16:33.412Z,18.70
2023-05-05T09:19:06.322Z,18.80
2023-05-05T09:21:34.291Z,18.90
2023-05-05T09:24:08.944Z,19.00
2023-05-05T09:26:38.974Z,19.10
2023-05-05T09:29:07.401Z,19.10
2023-05-05T09:31:37.025Z,19.30
2023-05-05T09:34:18.744Z,19.30
2023-05-05T09:36:48.913Z,19.30
2023-05-05T09:39:19.241Z,19.20
2023-05-05T09:41:47.354Z,19.10
2023-05-05T09:44:16.925Z,19.10
2023-05-05T09:46:52.367Z,19.00
2023-05-05T09:49:26.669Z,18.90
2023-05-05T09:51:55.836Z,18.90
2023-05-05T09:54:28.341Z,18.80
2023-05-05T09:56:56.987Z,18.80
2023-05-05T09:59:25.656Z,18.80
2023-05-05T10:01:53.788Z,18.90
2023-05-05T10:04:28.029Z,18.90
2023-05-05T10:06:57.287Z,19.00
2023-05-05T10:09:25.867Z,19.10
2023-05-05T10:11:54.578Z,19.10
2023-05-05T10:14:25.256Z,19.20
2023-05-05T10:16:54.656Z,19.30
2023-05-05T10:19:23.778Z,19.30
2023-05-05T10:21:54.380Z,19.40
2023-05-05T10:24:28.589Z,19.40
2023-05-05T10:26:59.553Z,19.50
2023-05-05T10:29:37.501Z,19.40
2023-05-05T10:32:30.207Z,19.50
2023-05-05T10:35:01.301Z,19.40
2023-05-05T10:37:31.110Z,19.40
2023-05-05T10:39:59.622Z,19.40
2023-05-05T10:42:27.763Z,19.40
2023-05-05T10:44:56.260Z,19.30
2023-05-05T10:47:25.387Z,19.40
2023-05-05T10:49:58.214Z,19.50
2023-05-05T10:52:35.000Z,19.80
2023-05-05T10:55:10.562Z,19.90
2023-05-05T10:57:41.848Z,20.20
2023-05-05T11:00:10.944Z,20.40
2023-05-05T11:02:40.122Z,20.60
2023-05-05T11:05:10.273Z,21.00
2023-05-05T11:07:39.975Z,21.30
2023-05-05T11:10:09.244Z,21.70
2023-05-05T11:13:14.689Z,21.90
2023-05-05T11:15:42.685Z,22.20
2023-05-05T11:18:30.403Z,22.50
2023-05-05T11:21:15.638Z,22.80
2023-05-05T11:23:47.066Z,23.00
2023-05-05T11:26:15.872Z,23.00
2023-05-05T11:29:02.389Z,23.10
2023-05-05T11:31:31.595Z,23.10
2023-05-05T11:34:27.870Z,23.10
2023-05-05T11:37:02.234Z,23.10
2023-05-05T11:39:39.323Z,23.00
2023-05-05T11:42:24.484Z,23.10
2023-05-05T11:44:52.711Z,23.10
2023-05-05T11:47:32.225Z,23.10
2023-05-05T11:50:16.055Z,23.20
2023-05-05T11:52:44.120Z,23.30
2023-05-05T11:55:13.631Z,23.20
2023-05-05T11:57:41.568Z,23.20
2023-05-05T12:00:10.484Z,23.40
2023-05-05T12:02:38.711Z,23.60
2023-05-05T12:05:07.945Z,23.70
2023-05-05T12:07:35.973Z,23.80
2023-05-05T12:10:04.092Z,23.70
2023-05-05T12:12:37.740Z,23.60
2023-05-05T12:15:07.597Z,23.60
2023-05-05T12:17:40.649Z,23.60
2023-05-05T12:20:10.959Z,23.80
2023-05-05T12:22:39.947Z,24.00
2023-05-05T12:25:09.431Z,24.20
2023-05-05T12:27:39.124Z,24.20
2023-05-05T12:30:16.151Z,24.20
2023-05-05T12:32:45.322Z,24.00
2023-05-05T12:35:14.366Z,24.10
2023-05-05T12:37:43.300Z,24.00
2023-05-05T12:40:45.631Z,23.90
2023-05-05T12:43:28.922Z,23.90
2023-05-05T12:46:05.914Z,23.80
2023-05-05T12:48:34.665Z,23.80
2023-05-05T12:51:16.755Z,23.80
2023-05-05T12:53:45.072Z,23.80
2023-05-05T12:56:34.698Z,23.70
2023-05-05T12:59:05.536Z,23.70
2023-05-05T13:01:33.755Z,23.70
2023-05-05T13:04:10.566Z,23.70
2023-05-05T13:06:38.826Z,23.70
2023-05-05T13:09:07.775Z,23.70
2023-05-05T13:11:37.148Z,23.80
2023-05-05T13:14:07.751Z,23.90
2023-05-05T13:16:35.975Z,24.00
2023-05-05T13:19:03.917Z,24.20
2023-05-05T13:21:31.880Z,24.30
2023-05-05T13:24:18.320Z,24.40
2023-05-05T13:26:48.459Z,24.50
2023-05-05T13:29:17.907Z,24.60
2023-05-05T13:31:46.491Z,24.40
2023-05-05T13:34:14.507Z,24.20
2023-05-05T13:36:42.450Z,23.90
2023-05-05T13:39:11.246Z,23.80
2023-05-05T13:41:39.341Z,23.60
2023-05-05T13:44:07.348Z,23.60
2023-05-05T13:46:36.672Z,23.40
2023-05-05T13:49:04.633Z,23.10
2023-05-05T13:51:34.523Z,22.90
2023-05-05T13:54:02.965Z,22.60
2023-05-05T13:56:31.052Z,22.50
2023-05-05T13:58:59.035Z,22.30
2023-05-05T14:01:27.238Z,22.20
2023-05-05T14:03:57.639Z,22.00
2023-05-05T14:06:26.366Z,21.90
2023-05-05T14:08:54.452Z,21.80
2023-05-05T14:11:22.851Z,21.70
2023-05-05T14:13:51.960Z,21.60
2023-05-05T14:16:19.987Z,21.50
2023-05-05T14:18:48.050Z,21.50
2023-05-05T14:21:17.332Z,21.50
2023-05-05T14:23:45.209Z,21.60
2023-05-05T14:26:13.191Z,21.70
2023-05-05T14:28:42.154Z,21.70
2023-05-05T14:31:11.057Z,21.80
2023-05-05T14:33:39.030Z,21.70
2023-05-05T14:36:07.723Z,21.60
2023-05-05T14:38:37.037Z,21.50
2023-05-05T14:41:05.565Z,21.40
2023-05-05T14:43:33.563Z,21.40
2023-05-05T14:46:06.508Z,21.40
2023-05-05T14:48:35.063Z,21.40
2023-05-05T14:51:03.139Z,21.40
2023-05-05T14:53:31.397Z,21.40
2023-05-05T14:56:02.134Z,21.40
2023-05-05T14:58:31.032Z,21.40
2023-05-05T15:01:00.363Z,21.40
2023-05-05T15:03:28.499Z,21.40
2023-05-05T15:05:56.628Z,21.40
2023-05-05T15:08:24.971Z,21.40
2023-05-05T15:10:52.890Z,21.30
2023-05-05T15:13:22.252Z,21.20
2023-05-05T15:15:51.233Z,21.10
2023-05-05T15:18:19.975Z,21.00
2023-05-05T15:20:47.896Z,20.90
2023-05-05T15:23:16.100Z,20.80
2023-05-05T15:25:44.286Z,20.70
2023-05-05T15:28:12.211Z,20.60
2023-05-05T15:30:41.482Z,20.50
2023-05-05T15:33:09.484Z,20.40
2023-05-05T15:35:37.546Z,20.30
2023-05-05T15:38:05.564Z,20.20
2023-05-05T15:40:33.614Z,20.10
2023-05-05T15:43:01.523Z,20.10
2023-05-05T15:45:29.434Z,20.00
2023-05-05T15:47:58.738Z,19.90
2023-05-05T15:50:26.754Z,19.70
2023-05-05T15:52:56.773Z,19.60
2023-05-05T15:55:24.940Z,19.60
2023-05-05T15:57:52.917Z,19.40
2023-05-05T16:00:21.364Z,19.30
2023-05-05T16:02:49.465Z,19.20
2023-05-05T16:05:20.703Z,19.10
2023-05-05T16:07:50.806Z,19.00
2023-05-05T16:10:19.439Z,18.90
2023-05-05T16:12:47.510Z,18.80
2023-05-05T16:15:15.620Z,18.70
2023-05-05T16:17:43.623Z,18.60
2023-05-05T16:20:12.696Z,18.50
2023-05-05T16:22:42.108Z,18.40
2023-05-05T16:25:10.985Z,18.30
2023-05-05T16:27:39.165Z,18.30
2023-05-05T16:30:08.778Z,18.30
2023-05-05T16:32:36.748Z,18.20
2023-05-05T16:35:07.143Z,18.20
2023-05-05T16:37:35.346Z,18.20
2023-05-05T16:40:05.995Z,18.20
2023-05-05T16:42:33.901Z,18.30
2023-05-05T16:45:01.812Z,18.30
2023-05-05T16:47:29.832Z,18.40
2023-05-05T16:49:57.843Z,18.40
2023-05-05T16:52:25.821Z,18.40
2023-05-05T16:54:55.582Z,18.50
2023-05-05T16:57:25.028Z,18.40
2023-05-05T16:59:56.173Z,18.40
2023-05-05T17:02:24.085Z,18.50
2023-05-05T17:04:52.148Z,18.50
2023-05-05T17:07:20.117Z,18.40
2023-05-05T17:09:48.111Z,18.50
2023-05-05T17:12:16.074Z,18.50
2023-05-05T17:14:46.031Z,18.50
2023-05-05T17:17:14.013Z,18.50
2023-05-05T17:19:42.543Z,18.50
2023-05-05T17:22:10.501Z,18.40
2023-05-05T17:24:38.453Z,18.30
2023-05-05T17:27:06.457Z,18.30
2023-05-05T17:29:39.350Z,18.20
2023-05-05T17:32:09.207Z,18.20
2023-05-05T17:34:37.342Z,18.10
2023-05-05T17:37:05.294Z,18.10
2023-05-05T17:39:33.757Z,18.10
2023-05-05T17:42:01.679Z,18.00
2023-05-05T17:44:31.346Z,17.90
2023-05-05T17:46:59.371Z,17.90
2023-05-05T17:49:28.633Z,17.80
2023-05-05T17:51:56.532Z,17.70
2023-05-05T17:54:24.407Z,17.60
2023-05-05T17:56:52.544Z,17.60
2023-05-05T17:59:20.551Z,17.50
2023-05-05T18:01:48.574Z,17.40
2023-05-05T18:04:16.511Z,17.30
2023-05-05T18:06:45.818Z,17.20
2023-05-05T18:09:13.750Z,17.10
2023-05-05T18:11:42.100Z,17.10
2023-05-05T18:14:10.680Z,17.00
2023-05-05T18:16:38.660Z,16.90
2023-05-05T18:19:07.202Z,16.90
2023-05-05T18:21:35.157Z,16.90
2023-05-05T18:24:15.727Z,16.90
2023-05-05T18:26:49.304Z,16.80
2023-05-05T18:29:17.702Z,16.70
2023-05-05T18:31:48.339Z,16.70
2023-05-05T18:34:16.922Z,16.70
2023-05-05T18:36:45.019Z,16.60
2023-05-05T18:39:14.549Z,16.60
2023-05-05T18:41:42.465Z,16.60
2023-05-05T18:44:10.698Z,16.60
2023-05-05T18:46:38.674Z,16.60
2023-05-05T18:49:06.703Z,16.60
2023-05-05T18:51:34.632Z,16.50
2023-05-05T18:54:02.573Z,16.50
2023-05-05T18:56:31.858Z,16.50
2023-05-05T18:58:59.773Z,16.50
2023-05-05T19:01:27.709Z,16.40
2023-05-05T19:03:55.742Z,16.40
2023-05-05T19:06:24.085Z,16.50
2023-05-05T19:08:51.981Z,16.40
2023-05-05T19:11:19.906Z,16.40
2023-05-05T19:13:49.282Z,16.40
2023-05-05T19:16:17.360Z,16.40
2023-05-05T19:18:45.431Z,16.40
2023-05-05T19:21:13.327Z,16.40
2023-05-05T19:23:41.288Z,16.40
2023-05-05T19:26:10.259Z,16.40
2023-05-05T19:28:38.186Z,16.30
2023-05-05T19:31:07.465Z,16.30
2023-05-05T19:33:36.359Z,16.30
2023-05-05T19:36:04.507Z,16.30
2023-05-05T19:38:32.480Z,16.30
2023-05-05T19:41:00.573Z,16.20
2023-05-05T19:43:28.553Z,16.20
2023-05-05T19:45:56.578Z,16.10
2023-05-05T19:48:26.440Z,16.10
2023-05-05T19:50:54.454Z,16.10
2023-05-05T19:53:22.420Z,16.10
2023-05-05T19:55:50.595Z,16.10
2023-05-05T19:58:18.836Z,16.10
2023-05-05T20:00:46.806Z,16.10
2023-05-05T20:03:14.848Z,16.10
2023-05-05T20:05:44.312Z,16.10
2023-05-05T20:08:12.226Z,16.10
2023-05-05T20:10:40.149Z,16.00
2023-05-05T20:13:08.247Z,16.00
2023-05-05T20:15:36.259Z,16.00
2023-05-05T20:18:04.522Z,15.90
2023-05-05T20:20:32.463Z,15.90
2023-05-05T20:23:01.798Z,15.90
2023-05-05T20:25:29.794Z,15.90
2023-05-05T20:27:57.750Z,15.90
2023-05-05T20:30:25.700Z,15.90
2023-05-05T20:32:54.294Z,15.90
2023-05-05T20:35:22.513Z,15.90
2023-05-05T20:37:51.281Z,15.90
2023-05-05T20:40:20.720Z,15.90
2023-05-05T20:42:48.620Z,15.90
2023-05-05T20:45:16.608Z,15.90
2023-05-05T20:47:44.678Z,15.90
2023-05-05T20:50:12.906Z,15.90
2023-05-05T20:52:40.869Z,15.80
2023-05-05T20:55:09.342Z,15.80
2023-05-05T20:57:38.630Z,15.80
2023-05-05T21:00:07.991Z,15.80
2023-05-05T21:02:36.404Z,15.80
2023-05-05T21:05:05.112Z,15.80
2023-05-05T21:07:34.189Z,15.80
2023-05-05T21:10:02.592Z,15.90
2023-05-05T21:12:31.008Z,15.90
2023-05-05T21:15:00.328Z,15.80
2023-05-05T21:17:28.592Z,15.80
2023-05-05T21:19:57.431Z,15.80
2023-05-05T21:22:25.428Z,15.80
2023-05-05T21:24:53.392Z,15.80
2023-05-05T21:27:21.348Z,15.80
2023-05-05T21:29:51.963Z,15.80
2023-05-05T21:32:21.289Z,15.80
2023-05-05T21:34:49.355Z,15.80
2023-05-05T21:37:17.319Z,15.80
2023-05-05T21:39:45.225Z,15.80
2023-05-05T21:42:13.181Z,15.80
2023-05-05T21:44:41.114Z,15.80
2023-05-05T21:47:10.510Z,15.80
2023-05-05T21:49:39.869Z,15.80
2023-05-05T21:52:07.833Z,15.80
2023-05-05T21:54:35.782Z,15.80
2023-05-05T21:57:03.802Z,15.80
2023-05-05T21:59:31.718Z,15.80
2023-05-05T22:01:59.919Z,15.70
2023-05-05T22:04:28.017Z,15.70
2023-05-05T22:06:57.371Z,15.70
2023-05-05T22:09:25.510Z,15.70
2023-05-05T22:11:53.420Z,15.70
2023-05-05T22:14:21.417Z,15.60
2023-05-05T22:16:49.377Z,15.60
2023-05-05T22:19:17.342Z,15.60
2023-05-05T22:21:45.291Z,15.50
2023-05-05T22:24:14.620Z,15.40
2023-05-05T22:26:43.342Z,15.40
2023-05-05T22:29:11.997Z,15.30
2023-05-05T22:31:40.159Z,15.30
2023-05-05T22:34:08.322Z,15.30
2023-05-05T22:36:36.249Z,15.40
2023-05-05T22:39:04.271Z,15.30
2023-05-05T22:41:33.567Z,15.40
2023-05-05T22:44:01.632Z,15.40
2023-05-05T22:46:29.622Z,15.40
2023-05-05T22:48:57.628Z,15.30
2023-05-05T22:51:25.541Z,15.30
2023-05-05T22:53:53.452Z,15.30
2023-05-05T22:56:21.420Z,15.30
2023-05-05T22:58:50.855Z,15.20
2023-05-05T23:01:18.812Z,15.20
2023-05-05T23:03:46.734Z,15.30
2023-05-05T23:06:14.686Z,15.20
2023-05-05T23:08:42.705Z,15.20
2023-05-05T23:11:10.653Z,15.20
2023-05-05T23:13:38.683Z,15.20
2023-05-05T23:16:09.257Z,15.20
2023-05-05T23:18:37.419Z,15.10
2023-05-05T23:21:05.611Z,15.10
2023-05-05T23:23:33.574Z,15.10
2023-05-05T23:26:01.495Z,15.10
2023-05-05T23:28:29.380Z,15.10
2023-05-05T23:30:57.439Z,15.10
2023-05-05T23:33:26.816Z,15.10
2023-05-05T23:35:54.979Z,15.10
2023-05-05T23:38:22.911Z,15.10
2023-05-05T23:40:50.843Z,15.10
2023-05-05T23:43:18.797Z,15.10
2023-05-05T23:45:46.748Z,15.10
2023-05-05T23:48:14.635Z,15.10
2023-05-05T23:50:43.973Z,15.10
2023-05-05T23:53:11.942Z,15.10
2023-05-05T23:55:39.898Z,15.10
2023-05-05T23:58:07.852Z,15.00
